East Alamosa, Colorado
Current Conditions -  °F | °C
As of 9:52 AM on Friday 31 Oct 2014 (Local Time) from KALS Reporting Station
Clear Clear  
Wind Chill: 38°   Ceiling: Unl
Heat Index: 41°   Visibility: 10mi
Dew Point: 21°   Wind: 5mph
Humidity: 45%   Direction: 240°WSW
Pressure: 30.43"   Gusts: NA
Location:  37.469°N, 105.836°W
Report Text: KALS 311552Z AUTO 24004KT 10SM CLR 05/M06 A3043 RMK AO2 SLP284 T00501061
Loading
Personal Weather Stations






























Interactive Weather Map
Tropical Storm Tracking
New forecast layout! Learn more

10-Day Weather Forecast

Advertisements
Track Severe Weather on mobile